Terminal Aerodrome Forecast
Issued by NWS Denver/Boulder, CO

Home | Current Version | Previous Version | Text Only | Print | Product List | Glossary On
Versions: 1 2 3 4 5 6 7 8 9 10 11 12 13 14 15 16 17 18 19 20 21 22 23 24 25 26 27 28 29 30 31 32 33 34 35 36 37 38 39 40 41 42 43 44 45 46 47 48 49 50
000
FTUS45 KBOU 251857 AAA
TAFDEN
TAF AMD
KDEN 251857Z 2519/2624 03014G24KT P6SM VCSH SCT020 OVC060
      TEMPO 2520/2521 3SM -SHSN SCT012 OVC020
     FM252100 04012G22KT 1 1/2SM -SN BR BKN010 OVC015
      TEMPO 2522/2602 1/2SM SN FZFG VV004
     FM260400 01012KT 2SM -SN BR OVC005
     FM261000 05008KT 3SM -SN BR BKN007 OVC015
     FM261400 06007KT 5SM -SN BR SCT007 OVC018
      TEMPO 2614/2618 3SM -SN BR BKN007
     FM261800 09008KT 5SM -SN BR SCT008 OVC020=

USA.gov is the U.S. government's official web portal to all federal, state and local government web resources and services.